createdAt,value
2023-05-22T00:01:53.330Z,81.62
2023-05-22T00:03:56.389Z,81.37
2023-05-22T00:06:00.706Z,81.85
2023-05-22T00:08:05.153Z,81.56
2023-05-22T00:10:08.536Z,81.21
2023-05-22T00:12:11.777Z,80.76
2023-05-22T00:14:16.542Z,80.73
2023-05-22T00:16:19.571Z,80.17
2023-05-22T00:18:23.042Z,80.12
2023-05-22T00:20:26.624Z,79.80
2023-05-22T00:22:31.847Z,79.96
2023-05-22T00:24:34.812Z,79.69
2023-05-22T00:26:37.886Z,80.50
2023-05-22T00:28:40.955Z,81.19
2023-05-22T00:30:46.098Z,81.22
2023-05-22T00:32:49.351Z,81.94
2023-05-22T00:34:52.556Z,81.88
2023-05-22T00:36:55.646Z,81.94
2023-05-22T00:38:58.605Z,81.59
2023-05-22T00:41:02.112Z,82.05
2023-05-22T00:43:09.030Z,82.08
2023-05-22T00:45:13.427Z,82.12
2023-05-22T00:47:17.921Z,81.88
2023-05-22T00:49:21.069Z,81.16
2023-05-22T00:51:25.241Z,81.67
2023-05-22T00:53:30.806Z,81.30
2023-05-22T00:55:34.607Z,80.84
2023-05-22T00:57:42.203Z,80.84
2023-05-22T00:59:45.524Z,80.48
2023-05-22T01:01:48.602Z,80.53
2023-05-22T01:03:54.130Z,80.41
2023-05-22T01:05:56.807Z,80.31
2023-05-22T01:07:59.783Z,80.35
2023-05-22T01:10:02.705Z,80.32
2023-05-22T01:12:17.713Z,80.19
2023-05-22T01:14:30.353Z,80.18
2023-05-22T01:16:39.957Z,80.84
2023-05-22T01:18:47.103Z,80.51
2023-05-22T01:20:58.503Z,81.01
2023-05-22T01:23:49.109Z,80.73
2023-05-22T01:26:32.346Z,81.49
2023-05-22T01:28:49.193Z,81.90
2023-05-22T01:31:02.499Z,80.94
2023-05-22T01:33:09.021Z,80.89
2023-05-22T01:35:14.934Z,80.27
2023-05-22T01:37:20.196Z,80.48
2023-05-22T01:39:26.119Z,82.00
2023-05-22T01:41:30.115Z,82.29
2023-05-22T01:43:33.247Z,81.41
2023-05-22T01:45:36.692Z,81.65
2023-05-22T01:47:41.222Z,81.16
2023-05-22T01:49:45.045Z,80.79
2023-05-22T01:51:56.251Z,81.85
2023-05-22T01:54:06.473Z,81.65
2023-05-22T01:56:15.028Z,82.24
2023-05-22T01:58:32.976Z,81.96
2023-05-22T02:00:37.986Z,81.71
2023-05-22T02:02:45.487Z,81.79
2023-05-22T02:04:56.317Z,81.60
2023-05-22T02:07:03.001Z,81.92
2023-05-22T02:09:07.548Z,81.38
2023-05-22T02:11:16.998Z,81.15
2023-05-22T02:13:20.188Z,81.38
2023-05-22T02:15:23.287Z,81.12
2023-05-22T02:17:26.459Z,81.13
2023-05-22T02:19:31.090Z,81.49
2023-05-22T02:21:34.522Z,81.42
2023-05-22T02:23:38.274Z,81.98
2023-05-22T02:25:41.587Z,81.05
2023-05-22T02:27:45.402Z,81.24
2023-05-22T02:29:48.543Z,81.06
2023-05-22T02:31:54.801Z,82.23
2023-05-22T02:33:57.768Z,82.56
2023-05-22T02:36:02.718Z,82.52
2023-05-22T02:38:06.906Z,81.54
2023-05-22T02:40:11.175Z,81.82
2023-05-22T02:42:15.163Z,81.79
2023-05-22T02:44:18.243Z,82.32
2023-05-22T02:46:21.289Z,82.84
2023-05-22T02:48:24.643Z,83.17
2023-05-22T02:50:28.055Z,83.06
2023-05-22T02:52:32.500Z,84.13
2023-05-22T02:54:35.467Z,84.22
2023-05-22T02:56:38.497Z,83.93
2023-05-22T02:58:41.455Z,83.24
2023-05-22T03:00:44.701Z,82.99
2023-05-22T03:02:47.732Z,82.98
2023-05-22T03:04:51.897Z,81.47
2023-05-22T03:06:55.117Z,82.83
2023-05-22T03:08:59.813Z,81.40
2023-05-22T03:11:03.170Z,82.93
2023-05-22T03:13:06.390Z,83.18
2023-05-22T03:15:10.755Z,83.00
2023-05-22T03:17:15.465Z,83.06
2023-05-22T03:19:18.593Z,82.10
2023-05-22T03:21:21.585Z,82.70
2023-05-22T03:23:25.770Z,81.58
2023-05-22T03:25:31.029Z,82.88
2023-05-22T03:27:34.036Z,82.64
2023-05-22T03:29:37.841Z,83.14
2023-05-22T03:31:41.164Z,82.45
2023-05-22T03:33:47.304Z,83.16
2023-05-22T03:35:50.540Z,81.71
2023-05-22T03:37:53.779Z,81.28
2023-05-22T03:39:56.773Z,83.03
2023-05-22T03:42:07.729Z,83.53
2023-05-22T03:44:12.427Z,84.27
2023-05-22T03:46:15.754Z,83.32
2023-05-22T03:48:18.782Z,83.28
2023-05-22T03:50:22.031Z,82.68
2023-05-22T03:52:25.698Z,81.91
2023-05-22T03:54:28.722Z,80.97
2023-05-22T03:56:32.627Z,82.37
2023-05-22T03:58:37.127Z,83.56
2023-05-22T04:00:42.917Z,83.86
2023-05-22T04:02:47.188Z,84.50
2023-05-22T04:04:50.923Z,84.87
2023-05-22T04:06:54.669Z,83.30
2023-05-22T04:08:57.595Z,83.32
2023-05-22T04:11:00.902Z,83.28
2023-05-22T04:13:03.952Z,82.34
2023-05-22T04:15:09.815Z,82.35
2023-05-22T04:17:12.809Z,82.57
2023-05-22T04:19:15.902Z,82.88
2023-05-22T04:21:19.445Z,83.36
2023-05-22T04:23:23.054Z,83.22
2023-05-22T04:25:27.566Z,83.31
2023-05-22T04:27:30.650Z,83.21
2023-05-22T04:29:36.586Z,82.88
2023-05-22T04:31:41.528Z,82.80
2023-05-22T04:33:48.591Z,82.21
2023-05-22T04:35:51.675Z,81.58
2023-05-22T04:37:56.462Z,81.71
2023-05-22T04:40:06.573Z,81.20
2023-05-22T04:42:09.765Z,81.60
2023-05-22T04:44:12.937Z,81.10
2023-05-22T04:46:16.585Z,80.82
2023-05-22T04:48:21.499Z,80.21
2023-05-22T04:50:24.456Z,80.20
2023-05-22T04:52:27.522Z,80.08
2023-05-22T04:54:30.453Z,78.76
2023-05-22T04:56:36.886Z,77.88
2023-05-22T04:58:40.833Z,78.01
2023-05-22T05:00:43.932Z,77.84
2023-05-22T05:02:47.778Z,76.47
2023-05-22T05:04:53.480Z,76.13
2023-05-22T05:06:57.929Z,76.18
2023-05-22T05:09:02.416Z,76.82
2023-05-22T05:11:05.864Z,76.72
2023-05-22T05:13:08.998Z,76.42
2023-05-22T05:15:14.984Z,76.21
2023-05-22T05:17:18.873Z,75.98
2023-05-22T05:19:21.887Z,75.41
2023-05-22T05:21:28.270Z,74.41
2023-05-22T05:23:35.190Z,74.84
2023-05-22T05:25:39.092Z,74.45
2023-05-22T05:27:43.070Z,75.48
2023-05-22T05:29:47.110Z,74.28
2023-05-22T05:31:58.118Z,73.82
2023-05-22T05:34:13.858Z,73.78
2023-05-22T05:36:41.923Z,72.67
2023-05-22T05:38:45.003Z,69.61
2023-05-22T05:40:50.036Z,69.48
2023-05-22T05:42:53.336Z,70.73
2023-05-22T05:45:00.717Z,69.76
2023-05-22T05:47:07.024Z,71.16
2023-05-22T05:49:11.605Z,68.12
2023-05-22T05:51:16.568Z,67.33
2023-05-22T05:53:21.804Z,67.11
2023-05-22T05:55:30.795Z,64.54
2023-05-22T05:57:35.020Z,62.54
2023-05-22T05:59:38.250Z,64.69
2023-05-22T06:01:56.276Z,61.94
2023-05-22T06:04:04.461Z,60.31
2023-05-22T06:06:09.546Z,58.11
2023-05-22T06:08:43.009Z,56.80
2023-05-22T06:10:47.292Z,56.32
2023-05-22T06:12:53.150Z,55.29
2023-05-22T06:14:56.275Z,54.90
2023-05-22T06:16:59.302Z,56.14
2023-05-22T06:19:02.894Z,54.60
2023-05-22T06:21:06.247Z,53.46
2023-05-22T06:23:10.247Z,51.14
2023-05-22T06:25:14.673Z,52.43
2023-05-22T06:27:17.727Z,50.60
2023-05-22T06:29:21.534Z,46.30
2023-05-22T06:31:26.491Z,47.42
2023-05-22T06:33:32.435Z,44.54
2023-05-22T06:35:36.042Z,47.72
2023-05-22T06:37:39.270Z,46.66
2023-05-22T06:39:42.577Z,46.56
2023-05-22T06:41:55.500Z,47.93
2023-05-22T06:43:58.790Z,44.03
2023-05-22T06:46:05.862Z,45.20
2023-05-22T06:48:17.439Z,43.97
2023-05-22T06:50:35.151Z,44.04
2023-05-22T06:52:39.480Z,43.07
2023-05-22T06:54:45.440Z,41.90
2023-05-22T06:56:51.177Z,42.76
2023-05-22T06:58:56.513Z,43.86
2023-05-22T07:01:08.180Z,43.33
2023-05-22T07:03:16.917Z,41.75
2023-05-22T07:05:40.211Z,43.80
2023-05-22T07:07:43.848Z,43.14
2023-05-22T07:09:47.099Z,43.41
2023-05-22T07:11:50.348Z,42.56
2023-05-22T07:13:53.318Z,39.23
2023-05-22T07:15:58.236Z,39.66
2023-05-22T07:18:01.492Z,37.91
2023-05-22T07:20:05.860Z,38.98
2023-05-22T07:22:11.117Z,39.98
2023-05-22T07:24:16.176Z,40.04
2023-05-22T07:26:20.358Z,37.79
2023-05-22T07:28:31.608Z,37.72
2023-05-22T07:30:44.678Z,37.26
2023-05-22T07:32:49.318Z,38.40
2023-05-22T07:34:52.855Z,37.56
2023-05-22T07:36:55.748Z,37.54
2023-05-22T07:38:58.878Z,36.78
2023-05-22T07:41:04.981Z,38.52
2023-05-22T07:43:09.864Z,37.88
2023-05-22T07:45:12.928Z,37.81
2023-05-22T07:47:16.250Z,39.68
2023-05-22T07:49:22.415Z,35.14
2023-05-22T07:51:26.750Z,33.94
2023-05-22T07:53:29.905Z,37.56
2023-05-22T07:55:35.685Z,34.42
2023-05-22T07:57:39.236Z,35.10
2023-05-22T07:59:51.119Z,33.99
2023-05-22T08:01:54.214Z,32.70
2023-05-22T08:03:57.485Z,33.87
2023-05-22T08:06:02.082Z,32.34
2023-05-22T08:08:05.405Z,31.95
2023-05-22T08:10:15.050Z,32.93
2023-05-22T08:12:18.065Z,35.83
2023-05-22T08:14:22.238Z,31.18
2023-05-22T08:16:25.337Z,32.88
2023-05-22T08:18:29.775Z,31.65
2023-05-22T08:20:33.935Z,31.89
2023-05-22T08:22:39.755Z,30.88
2023-05-22T08:24:42.821Z,30.44
2023-05-22T08:26:45.992Z,30.98
2023-05-22T08:28:48.996Z,32.15
2023-05-22T08:30:52.377Z,29.88
2023-05-22T08:32:55.883Z,29.30
2023-05-22T08:34:59.848Z,31.69
2023-05-22T08:37:02.914Z,30.17
2023-05-22T08:39:09.029Z,30.06
2023-05-22T08:41:13.200Z,31.37
2023-05-22T08:43:16.492Z,30.40
2023-05-22T08:45:20.169Z,29.56
2023-05-22T08:47:27.135Z,29.48
2023-05-22T08:49:31.281Z,31.40
2023-05-22T08:51:36.070Z,30.12
2023-05-22T08:53:41.133Z,31.12
2023-05-22T08:55:46.050Z,29.83
2023-05-22T08:57:50.540Z,28.48
2023-05-22T08:59:54.092Z,28.45
2023-05-22T09:01:58.423Z,32.13
2023-05-22T09:04:02.472Z,28.26
2023-05-22T09:06:09.669Z,30.91
2023-05-22T09:08:20.534Z,30.73
2023-05-22T09:10:24.407Z,26.83
2023-05-22T09:12:28.823Z,28.09
2023-05-22T09:14:39.565Z,28.57
2023-05-22T09:16:47.354Z,28.44
2023-05-22T09:18:50.925Z,29.76
2023-05-22T09:20:54.067Z,26.89
2023-05-22T09:22:57.305Z,29.52
2023-05-22T09:25:00.174Z,30.56
2023-05-22T09:27:04.503Z,29.15
2023-05-22T09:29:09.485Z,28.86
2023-05-22T09:31:12.851Z,31.37
2023-05-22T09:33:17.427Z,28.09
2023-05-22T09:35:21.262Z,30.32
2023-05-22T09:37:24.294Z,29.84
2023-05-22T09:39:38.486Z,29.98
2023-05-22T09:41:41.615Z,28.23
2023-05-22T09:43:51.550Z,28.98
2023-05-22T09:46:02.287Z,29.82
2023-05-22T09:48:06.367Z,28.73
2023-05-22T09:50:11.119Z,27.70
2023-05-22T09:52:14.255Z,29.07
2023-05-22T09:54:19.197Z,29.39
2023-05-22T09:56:37.860Z,31.52
2023-05-22T09:58:45.368Z,29.61
2023-05-22T10:00:50.291Z,30.20
2023-05-22T10:03:03.734Z,30.14
2023-05-22T10:05:09.784Z,29.95
2023-05-22T10:07:14.211Z,29.66
2023-05-22T10:09:19.768Z,30.32
2023-05-22T10:11:24.075Z,30.31
2023-05-22T10:13:28.318Z,30.05
2023-05-22T10:15:32.554Z,30.20
2023-05-22T10:17:37.192Z,29.15
2023-05-22T10:19:43.938Z,29.65
2023-05-22T10:21:50.198Z,27.87
2023-05-22T10:23:53.976Z,28.19
2023-05-22T10:25:58.059Z,28.75
2023-05-22T10:28:01.527Z,30.39
2023-05-22T10:30:21.280Z,29.61
2023-05-22T10:32:48.450Z,27.08
2023-05-22T10:35:02.471Z,29.22
2023-05-22T10:37:31.687Z,29.55
2023-05-22T10:39:43.608Z,29.62
2023-05-22T10:41:47.198Z,25.84
2023-05-22T10:43:51.262Z,26.25
2023-05-22T10:46:03.532Z,27.46
2023-05-22T10:48:07.714Z,31.73
2023-05-22T10:50:13.022Z,28.96
2023-05-22T10:52:18.879Z,29.42
2023-05-22T10:54:39.599Z,32.82
2023-05-22T10:56:42.652Z,31.27
2023-05-22T10:58:56.945Z,31.15
2023-05-22T11:01:13.049Z,30.70
2023-05-22T11:03:18.401Z,30.49
2023-05-22T11:05:39.091Z,29.08
2023-05-22T11:07:42.082Z,31.88
2023-05-22T11:09:48.113Z,29.46
2023-05-22T11:12:18.402Z,31.13
2023-05-22T11:14:21.390Z,30.46
2023-05-22T11:16:24.477Z,30.48
2023-05-22T11:18:29.878Z,31.44
2023-05-22T11:20:40.482Z,31.85
2023-05-22T11:22:45.519Z,31.99
2023-05-22T11:24:49.216Z,32.68
2023-05-22T11:27:03.837Z,32.09
2023-05-22T11:29:09.103Z,31.79
2023-05-22T11:31:12.245Z,30.92
2023-05-22T11:33:15.748Z,29.33
2023-05-22T11:35:20.245Z,29.08
2023-05-22T11:37:24.973Z,29.71
2023-05-22T11:39:28.159Z,29.33
2023-05-22T11:41:33.941Z,29.67
2023-05-22T11:43:37.873Z,31.24
2023-05-22T11:45:41.000Z,31.82
2023-05-22T11:47:45.059Z,30.89
2023-05-22T11:49:48.044Z,29.08
2023-05-22T11:51:52.181Z,29.31
2023-05-22T11:53:57.702Z,29.18
2023-05-22T11:56:04.629Z,30.82
2023-05-22T11:58:07.547Z,29.03
2023-05-22T12:00:12.584Z,30.12
2023-05-22T12:02:16.945Z,31.26
2023-05-22T12:04:19.965Z,30.95
2023-05-22T12:06:23.274Z,30.27
2023-05-22T12:08:26.866Z,28.44
2023-05-22T12:10:32.318Z,31.19
2023-05-22T12:12:35.425Z,30.64
2023-05-22T12:14:38.935Z,29.97
2023-05-22T12:16:42.128Z,29.25
2023-05-22T12:18:45.130Z,29.28
2023-05-22T12:20:48.185Z,28.49
2023-05-22T12:22:51.272Z,30.62
2023-05-22T12:24:54.309Z,30.08
2023-05-22T12:26:58.761Z,29.63
2023-05-22T12:29:01.946Z,28.91
2023-05-22T12:31:05.217Z,28.49
2023-05-22T12:33:14.384Z,30.61
2023-05-22T12:35:17.878Z,28.97
2023-05-22T12:37:22.340Z,29.80
2023-05-22T12:39:25.806Z,26.87
2023-05-22T12:41:29.005Z,31.78
2023-05-22T12:43:33.465Z,30.74
2023-05-22T12:45:36.597Z,29.44
2023-05-22T12:47:39.729Z,28.75
2023-05-22T12:49:42.771Z,29.88
2023-05-22T12:51:46.030Z,28.16
2023-05-22T12:53:49.209Z,29.35
2023-05-22T12:55:52.072Z,30.48
2023-05-22T12:57:55.156Z,29.39
2023-05-22T12:59:59.620Z,31.51
2023-05-22T13:02:03.659Z,29.86
2023-05-22T13:04:06.756Z,29.61
2023-05-22T13:06:09.885Z,30.16
2023-05-22T13:08:12.866Z,29.65
2023-05-22T13:10:16.083Z,29.73
2023-05-22T13:12:19.863Z,29.31
2023-05-22T13:14:22.982Z,28.43
2023-05-22T13:16:27.628Z,25.95
2023-05-22T13:18:30.949Z,28.47
2023-05-22T13:20:36.333Z,29.65
2023-05-22T13:22:39.034Z,29.70
2023-05-22T13:24:42.146Z,30.28
2023-05-22T13:26:45.072Z,30.30
2023-05-22T13:28:48.001Z,31.90
2023-05-22T13:30:51.039Z,31.96
2023-05-22T13:32:55.966Z,32.99
2023-05-22T13:34:59.136Z,32.38
2023-05-22T13:37:02.110Z,34.87
2023-05-22T13:39:05.226Z,35.01
2023-05-22T13:41:08.096Z,33.94
2023-05-22T13:43:11.336Z,33.64
2023-05-22T13:45:14.754Z,35.00
2023-05-22T13:47:18.255Z,33.68
2023-05-22T13:49:22.823Z,31.21
2023-05-22T13:51:25.816Z,30.80
2023-05-22T13:53:28.834Z,31.31
2023-05-22T13:55:32.130Z,32.24
2023-05-22T13:57:35.276Z,31.01
2023-05-22T13:59:38.310Z,30.54
2023-05-22T14:01:41.592Z,30.60
2023-05-22T14:03:45.058Z,30.28
2023-05-22T14:05:49.691Z,29.94
2023-05-22T14:07:52.740Z,31.39
2023-05-22T14:09:55.686Z,29.30
2023-05-22T14:11:58.726Z,31.98
2023-05-22T14:14:01.745Z,33.41
2023-05-22T14:16:05.001Z,31.25
2023-05-22T14:18:08.138Z,32.82
2023-05-22T14:20:11.975Z,28.04
2023-05-22T14:22:16.349Z,28.60
2023-05-22T14:24:19.304Z,31.74
2023-05-22T14:26:22.628Z,30.62
2023-05-22T14:28:26.379Z,30.42
2023-05-22T14:30:29.305Z,32.02
2023-05-22T14:32:32.334Z,32.63
2023-05-22T14:34:35.218Z,32.14
2023-05-22T14:36:38.264Z,32.80
2023-05-22T14:38:42.793Z,32.89
2023-05-22T14:40:46.052Z,32.19
2023-05-22T14:42:49.553Z,30.90
2023-05-22T14:44:53.282Z,31.70
2023-05-22T14:46:56.227Z,30.18
2023-05-22T14:48:59.493Z,31.20
2023-05-22T14:51:02.446Z,30.41
2023-05-22T14:53:05.345Z,31.13
2023-05-22T14:55:10.494Z,32.68
2023-05-22T14:57:13.428Z,32.47
2023-05-22T14:59:16.553Z,33.50
2023-05-22T15:01:19.717Z,31.01
2023-05-22T15:03:23.904Z,32.29
2023-05-22T15:05:27.254Z,31.43
2023-05-22T15:07:43.150Z,32.05
2023-05-22T15:09:47.385Z,31.78
2023-05-22T15:11:51.858Z,31.65
2023-05-22T15:13:54.860Z,32.35
2023-05-22T15:15:58.737Z,32.98
2023-05-22T15:18:05.045Z,31.94
2023-05-22T15:20:09.606Z,32.81
2023-05-22T15:22:19.348Z,31.89
2023-05-22T15:24:22.995Z,31.91
2023-05-22T15:26:26.008Z,33.75
2023-05-22T15:28:30.378Z,35.21
2023-05-22T15:30:39.095Z,33.22
2023-05-22T15:32:42.049Z,34.18
2023-05-22T15:34:45.028Z,34.20
2023-05-22T15:36:47.920Z,32.67
2023-05-22T15:38:51.237Z,33.50
2023-05-22T15:40:54.104Z,33.09
2023-05-22T15:42:57.219Z,31.42
2023-05-22T15:45:01.740Z,32.83
2023-05-22T15:47:04.799Z,34.64
2023-05-22T15:49:07.801Z,35.37
2023-05-22T15:51:11.175Z,31.21
2023-05-22T15:53:14.202Z,34.46
2023-05-22T15:55:17.339Z,35.86
2023-05-22T15:57:20.477Z,36.60
2023-05-22T15:59:23.765Z,37.05
2023-05-22T16:01:29.918Z,33.63
2023-05-22T16:03:33.302Z,35.08
2023-05-22T16:05:37.021Z,33.18
2023-05-22T16:07:39.997Z,32.15
2023-05-22T16:09:43.718Z,34.29
2023-05-22T16:11:46.810Z,34.78
2023-05-22T16:13:49.881Z,36.00
2023-05-22T16:15:53.006Z,37.16
2023-05-22T16:17:57.781Z,36.18
2023-05-22T16:20:01.027Z,37.48
2023-05-22T16:22:04.487Z,37.44
2023-05-22T16:24:07.629Z,38.42
2023-05-22T16:26:10.513Z,39.61
2023-05-22T16:28:13.784Z,39.12
2023-05-22T16:30:17.646Z,39.57
2023-05-22T16:32:21.001Z,39.90
2023-05-22T16:34:25.674Z,40.49
2023-05-22T16:36:28.678Z,40.73
2023-05-22T16:38:31.575Z,37.49
2023-05-22T16:40:34.583Z,40.03
2023-05-22T16:42:38.642Z,39.40
2023-05-22T16:44:41.637Z,38.87
2023-05-22T16:46:44.649Z,39.32
2023-05-22T16:48:48.058Z,39.73
2023-05-22T16:50:52.739Z,40.40
2023-05-22T16:52:55.737Z,39.11
2023-05-22T16:54:58.598Z,40.27
2023-05-22T16:57:02.188Z,41.10
2023-05-22T16:59:05.517Z,38.65
2023-05-22T17:01:08.718Z,39.40
2023-05-22T17:03:12.303Z,41.65
2023-05-22T17:05:15.717Z,41.33
2023-05-22T17:07:20.037Z,41.02
2023-05-22T17:09:23.027Z,40.74
2023-05-22T17:11:26.692Z,42.15
2023-05-22T17:13:29.797Z,41.74
2023-05-22T17:15:32.828Z,41.27
2023-05-22T17:17:35.949Z,39.97
2023-05-22T17:19:39.443Z,41.27
2023-05-22T17:21:43.583Z,41.97
2023-05-22T17:23:48.004Z,41.63
2023-05-22T17:25:51.662Z,42.30
2023-05-22T17:27:54.606Z,42.06
2023-05-22T17:29:57.905Z,43.13
2023-05-22T17:32:00.983Z,44.02
2023-05-22T17:34:04.896Z,43.40
2023-05-22T17:36:07.950Z,43.94
2023-05-22T17:38:11.018Z,43.98
2023-05-22T17:40:15.734Z,44.52
2023-05-22T17:42:19.187Z,44.87
2023-05-22T17:44:22.235Z,44.38
2023-05-22T17:46:26.960Z,44.45
2023-05-22T17:48:29.944Z,46.51
2023-05-22T17:50:32.927Z,46.35
2023-05-22T17:52:36.445Z,49.02
2023-05-22T17:54:39.415Z,48.59
2023-05-22T17:56:43.953Z,49.99
2023-05-22T17:58:46.926Z,50.54
2023-05-22T18:00:50.082Z,52.26
2023-05-22T18:02:53.551Z,52.26
2023-05-22T18:04:56.608Z,52.10
2023-05-22T18:07:00.203Z,52.05
2023-05-22T18:09:04.721Z,54.31
2023-05-22T18:11:07.812Z,52.80
2023-05-22T18:13:12.256Z,50.17
2023-05-22T18:15:15.426Z,50.71
2023-05-22T18:17:18.541Z,50.09
2023-05-22T18:19:21.886Z,50.61
2023-05-22T18:21:24.943Z,51.21
2023-05-22T18:23:28.075Z,52.97
2023-05-22T18:25:31.166Z,53.12
2023-05-22T18:27:34.278Z,54.55
2023-05-22T18:29:39.856Z,53.98
2023-05-22T18:31:43.453Z,55.99
2023-05-22T18:33:46.667Z,55.70
2023-05-22T18:35:49.723Z,56.31
2023-05-22T18:37:52.756Z,55.81
2023-05-22T18:39:55.901Z,56.64
2023-05-22T18:41:58.988Z,56.48
2023-05-22T18:44:02.011Z,58.67
2023-05-22T18:46:06.340Z,58.46
2023-05-22T18:48:09.388Z,58.96
2023-05-22T18:50:13.250Z,57.96
2023-05-22T18:52:16.240Z,58.25
2023-05-22T18:54:19.142Z,57.93
2023-05-22T18:56:22.180Z,57.84
2023-05-22T18:58:25.090Z,59.03
2023-05-22T19:00:28.702Z,58.17
2023-05-22T19:02:33.209Z,58.86
2023-05-22T19:04:36.302Z,59.65
2023-05-22T19:06:42.436Z,58.08
2023-05-22T19:08:45.533Z,57.26
2023-05-22T19:10:48.363Z,58.87
2023-05-22T19:12:51.234Z,59.24
2023-05-22T19:14:54.194Z,60.32
2023-05-22T19:16:59.663Z,59.35
2023-05-22T19:19:03.888Z,60.98
2023-05-22T19:21:06.922Z,60.86
2023-05-22T19:23:11.659Z,61.49
2023-05-22T19:25:14.629Z,61.60
2023-05-22T19:27:18.418Z,62.47
2023-05-22T19:29:21.455Z,61.23
2023-05-22T19:31:24.236Z,63.36
2023-05-22T19:33:27.956Z,64.00
2023-05-22T19:35:32.406Z,64.78
2023-05-22T19:37:35.378Z,64.18
2023-05-22T19:39:38.739Z,64.14
2023-05-22T19:41:41.712Z,67.05
2023-05-22T19:43:45.054Z,66.33
2023-05-22T19:45:48.175Z,65.64
2023-05-22T19:47:51.224Z,65.58
2023-05-22T19:49:54.245Z,66.21
2023-05-22T19:51:59.804Z,65.38
2023-05-22T19:54:02.726Z,66.46
2023-05-22T19:56:06.086Z,64.61
2023-05-22T19:58:09.139Z,67.20
2023-05-22T20:00:13.247Z,67.13
2023-05-22T20:02:16.321Z,67.91
2023-05-22T20:04:19.274Z,66.90
2023-05-22T20:06:22.427Z,66.69
2023-05-22T20:08:27.111Z,69.22
2023-05-22T20:10:31.627Z,69.66
2023-05-22T20:12:34.960Z,68.99
2023-05-22T20:14:38.390Z,67.49
2023-05-22T20:16:41.598Z,68.79
2023-05-22T20:18:45.240Z,68.42
2023-05-22T20:20:48.350Z,68.51
2023-05-22T20:22:53.051Z,68.85
2023-05-22T20:24:57.400Z,67.34
2023-05-22T20:27:01.715Z,69.61
2023-05-22T20:29:04.676Z,70.19
2023-05-22T20:31:07.654Z,69.93
2023-05-22T20:33:12.183Z,68.71
2023-05-22T20:35:18.978Z,68.58
2023-05-22T20:37:22.205Z,68.83
2023-05-22T20:39:26.729Z,69.36
2023-05-22T20:41:31.995Z,70.91
2023-05-22T20:43:35.188Z,71.24
2023-05-22T20:45:38.550Z,70.70
2023-05-22T20:47:41.764Z,71.31
2023-05-22T20:49:44.649Z,71.02
2023-05-22T20:51:47.644Z,71.46
2023-05-22T20:53:53.195Z,72.29
2023-05-22T20:55:57.779Z,73.08
2023-05-22T20:58:02.278Z,73.68
2023-05-22T21:00:08.836Z,74.10
2023-05-22T21:02:12.175Z,73.79
2023-05-22T21:04:15.193Z,73.98
2023-05-22T21:06:18.978Z,74.95
2023-05-22T21:08:21.996Z,74.55
2023-05-22T21:10:24.967Z,74.34
2023-05-22T21:12:28.055Z,74.57
2023-05-22T21:14:32.436Z,74.62
2023-05-22T21:16:37.607Z,74.45
2023-05-22T21:18:42.148Z,73.59
2023-05-22T21:20:45.086Z,73.83
2023-05-22T21:22:48.517Z,74.54
2023-05-22T21:24:51.607Z,73.92
2023-05-22T21:26:54.596Z,73.92
2023-05-22T21:28:57.627Z,73.92
2023-05-22T21:31:02.123Z,73.74
2023-05-22T21:33:05.359Z,74.66
2023-05-22T21:35:09.316Z,74.68
2023-05-22T21:37:12.268Z,73.87
2023-05-22T21:39:15.198Z,73.74
2023-05-22T21:41:18.467Z,73.30
2023-05-22T21:43:21.406Z,74.23
2023-05-22T21:45:24.469Z,75.48
2023-05-22T21:47:28.905Z,75.18
2023-05-22T21:49:31.928Z,75.44
2023-05-22T21:51:34.756Z,74.81
2023-05-22T21:53:37.758Z,75.23
2023-05-22T21:55:40.710Z,75.67
2023-05-22T21:57:45.799Z,76.70
2023-05-22T21:59:49.054Z,76.81
2023-05-22T22:01:52.177Z,77.21
2023-05-22T22:03:56.704Z,77.22
2023-05-22T22:06:00.189Z,76.95
2023-05-22T22:08:03.147Z,77.25
2023-05-22T22:10:07.185Z,76.70
2023-05-22T22:12:10.195Z,76.19
2023-05-22T22:14:13.124Z,76.35
2023-05-22T22:16:16.971Z,77.50
2023-05-22T22:18:19.952Z,77.42
2023-05-22T22:20:43.293Z,78.73
2023-05-22T22:22:47.442Z,78.48
2023-05-22T22:24:50.332Z,77.36
2023-05-22T22:26:53.352Z,77.77
2023-05-22T22:28:56.511Z,77.49
2023-05-22T22:30:59.607Z,77.96
2023-05-22T22:33:02.725Z,77.82
2023-05-22T22:35:06.942Z,78.35
2023-05-22T22:37:11.515Z,78.48
2023-05-22T22:39:14.658Z,78.32
2023-05-22T22:41:17.807Z,78.12
2023-05-22T22:43:20.892Z,77.74
2023-05-22T22:45:23.928Z,77.89
2023-05-22T22:47:28.296Z,77.69
2023-05-22T22:49:32.065Z,77.58
2023-05-22T22:51:35.057Z,78.01
2023-05-22T22:53:39.368Z,78.21
2023-05-22T22:55:42.656Z,79.77
2023-05-22T22:57:50.272Z,79.89
2023-05-22T22:59:53.549Z,80.31
2023-05-22T23:01:56.751Z,79.65
2023-05-22T23:03:59.829Z,79.84
2023-05-22T23:06:03.136Z,79.08
2023-05-22T23:08:06.288Z,78.89
2023-05-22T23:10:11.269Z,78.92
2023-05-22T23:12:14.251Z,80.92
2023-05-22T23:14:18.128Z,79.93
2023-05-22T23:16:23.286Z,79.71
2023-05-22T23:18:26.568Z,79.22
2023-05-22T23:20:29.687Z,79.31
2023-05-22T23:22:32.738Z,79.37
2023-05-22T23:24:35.799Z,79.14
2023-05-22T23:26:40.288Z,79.54
2023-05-22T23:28:43.193Z,79.46
2023-05-22T23:30:46.633Z,79.55
2023-05-22T23:32:49.602Z,79.79
2023-05-22T23:34:52.652Z,79.66
2023-05-22T23:36:55.734Z,80.69
2023-05-22T23:38:58.598Z,81.26
2023-05-22T23:41:01.904Z,81.16
2023-05-22T23:43:06.450Z,80.35
2023-05-22T23:45:09.615Z,80.39
2023-05-22T23:47:12.848Z,80.70
2023-05-22T23:49:16.306Z,80.94
2023-05-22T23:51:19.238Z,80.02
2023-05-22T23:53:22.168Z,81.01
2023-05-22T23:55:25.080Z,81.18
2023-05-22T23:57:28.187Z,80.90
2023-05-22T23:59:32.640Z,82.13
